JBU2961 KJFK-TBPB
Flight info
| Callsign | JBU2961 |
|---|---|
| Flight time | N/A |
| Altitude | 31000 |
| Route | SHIPP Y492 SQUAD/M077F310 DCT DARUX L456 NOSID/M077F330 L456 HANCY/N0458F330 L456 THANK DCT COY DCT LEEOO L454 ILURI UA555 BGI |
| Aircraft | A321/M-SDE3FGHIRWY/LB1 |
Departure
| Time | 2026-05-09 12:17 |
|---|---|
| Airport | John F. Kennedy International Airport (KJFK) |
Arrival
| Time | N/A |
|---|---|
| Airport | Grantley Adams International Airport (TBPB) |
| Time | Latitude | Longitude | Altitude | Speed | Heading |
|---|---|---|---|---|---|
| 2026-05-09 11:24 | 40.64539 | -73.77435 | 23 ft | 0 kts | 357° |
| 2026-05-09 12:07 | 40.64523 | -73.77434 | 24 ft | 4 kts | 357° |
| 2026-05-09 12:07 | 40.64506 | -73.77433 | 25 ft | 1 kts | 357° |
| 2026-05-09 12:07 | 40.64503 | -73.77433 | 25 ft | 0 kts | 357° |
| 2026-05-09 12:09 | 40.64504 | -73.77433 | 22 ft | 0 kts | 357° |
| 2026-05-09 12:09 | 40.64505 | -73.77433 | 22 ft | 0 kts | 357° |
| 2026-05-09 12:10 | 40.64508 | -73.77433 | 22 ft | 0 kts | 357° |
| 2026-05-09 12:10 | 40.64511 | -73.77427 | 24 ft | 1 kts | 48° |
| 2026-05-09 12:10 | 40.64508 | -73.77415 | 23 ft | 1 kts | 109° |
| 2026-05-09 12:11 | 40.64503 | -73.77396 | 22 ft | 6 kts | 111° |
| 2026-05-09 12:11 | 40.64480 | -73.77327 | 22 ft | 9 kts | 113° |
| 2026-05-09 12:11 | 40.64460 | -73.77249 | 22 ft | 9 kts | 110° |
| 2026-05-09 12:11 | 40.64446 | -73.77170 | 22 ft | 9 kts | 103° |
| 2026-05-09 12:12 | 40.64431 | -73.77090 | 22 ft | 10 kts | 104° |
| 2026-05-09 12:12 | 40.64433 | -73.77003 | 22 ft | 10 kts | 43° |
| 2026-05-09 12:12 | 40.64508 | -73.76983 | 19 ft | 12 kts | 14° |
| 2026-05-09 12:12 | 40.64578 | -73.76933 | 19 ft | 11 kts | 31° |
| 2026-05-09 12:13 | 40.64647 | -73.76879 | 18 ft | 12 kts | 30° |
| 2026-05-09 12:13 | 40.64719 | -73.76824 | 18 ft | 12 kts | 31° |
| 2026-05-09 12:13 | 40.64786 | -73.76771 | 21 ft | 10 kts | 31° |
| 2026-05-09 12:13 | 40.64842 | -73.76726 | 22 ft | 8 kts | 31° |
| 2026-05-09 12:14 | 40.64890 | -73.76689 | 22 ft | 8 kts | 31° |
| 2026-05-09 12:14 | 40.64941 | -73.76649 | 21 ft | 9 kts | 31° |
| 2026-05-09 12:14 | 40.65000 | -73.76603 | 21 ft | 10 kts | 31° |
| 2026-05-09 12:14 | 40.65060 | -73.76556 | 22 ft | 10 kts | 31° |
| 2026-05-09 12:15 | 40.65105 | -73.76512 | 21 ft | 7 kts | 61° |
| 2026-05-09 12:15 | 40.65095 | -73.76465 | 22 ft | 5 kts | 119° |
| 2026-05-09 12:15 | 40.65081 | -73.76432 | 24 ft | 4 kts | 120° |
| 2026-05-09 12:15 | 40.65065 | -73.76397 | 23 ft | 6 kts | 121° |
| 2026-05-09 12:16 | 40.65033 | -73.76350 | 22 ft | 7 kts | 165° |
| 2026-05-09 12:16 | 40.64987 | -73.76379 | 22 ft | 11 kts | 211° |
| 2026-05-09 12:16 | 40.64761 | -73.76557 | 22 ft | 72 kts | 211° |
| 2026-05-09 12:16 | 40.64159 | -73.77029 | 23 ft | 130 kts | 210° |
| 2026-05-09 12:17 | 40.63237 | -73.77753 | 29 ft | 177 kts | 210° |
| 2026-05-09 12:17 | 40.62145 | -73.78611 | 652 ft | 173 kts | 210° |
| 2026-05-09 12:17 | 40.61170 | -73.79387 | 1671 ft | 156 kts | 213° |
| 2026-05-09 12:17 | 40.60222 | -73.80122 | 2085 ft | 165 kts | 213° |
| 2026-05-09 12:18 | 40.59062 | -73.80542 | 2216 ft | 189 kts | 182° |
| 2026-05-09 12:18 | 40.57772 | -73.79842 | 2349 ft | 220 kts | 146° |
| 2026-05-09 12:18 | 40.56857 | -73.78071 | 2456 ft | 254 kts | 112° |
| 2026-05-09 12:18 | 40.56649 | -73.75643 | 2657 ft | 280 kts | 91° |
| 2026-05-09 12:19 | 40.56785 | -73.73050 | 3160 ft | 287 kts | 88° |
| 2026-05-09 12:19 | 40.56976 | -73.70411 | 3734 ft | 291 kts | 87° |
| 2026-05-09 12:19 | 40.57173 | -73.67757 | 4371 ft | 293 kts | 87° |
| 2026-05-09 12:19 | 40.57370 | -73.65086 | 4978 ft | 295 kts | 87° |
| 2026-05-09 12:20 | 40.57503 | -73.63306 | 5397 ft | 295 kts | 88° |
| 2026-05-09 12:20 | 40.57714 | -73.60615 | 6027 ft | 296 kts | 88° |
| 2026-05-09 12:20 | 40.57675 | -73.57941 | 6625 ft | 290 kts | 108° |
| 2026-05-09 12:20 | 40.56929 | -73.55536 | 7172 ft | 281 kts | 131° |
| 2026-05-09 12:21 | 40.55640 | -73.53653 | 7724 ft | 277 kts | 142° |
| 2026-05-09 12:21 | 40.54240 | -73.51872 | 8293 ft | 280 kts | 142° |
| 2026-05-09 12:21 | 40.52829 | -73.50078 | 8856 ft | 283 kts | 142° |
| 2026-05-09 12:21 | 40.51403 | -73.48266 | 9394 ft | 287 kts | 142° |
| 2026-05-09 12:22 | 40.49961 | -73.46431 | 9926 ft | 290 kts | 142° |
| 2026-05-09 12:22 | 40.48500 | -73.44570 | 10233 ft | 302 kts | 142° |
| 2026-05-09 12:22 | 40.46937 | -73.42589 | 10366 ft | 319 kts | 142° |
| 2026-05-09 12:22 | 40.45295 | -73.40509 | 10494 ft | 336 kts | 142° |
| 2026-05-09 12:23 | 40.43594 | -73.38348 | 10616 ft | 352 kts | 141° |
| 2026-05-09 12:23 | 40.41801 | -73.36062 | 10803 ft | 365 kts | 141° |
| 2026-05-09 12:23 | 40.39969 | -73.33719 | 11228 ft | 370 kts | 141° |
| 2026-05-09 12:23 | 40.38116 | -73.31345 | 11700 ft | 374 kts | 141° |
| 2026-05-09 12:24 | 40.36241 | -73.28942 | 12149 ft | 379 kts | 141° |
| 2026-05-09 12:24 | 40.34347 | -73.26521 | 12583 ft | 383 kts | 140° |
| 2026-05-09 12:24 | 40.32556 | -73.23881 | 13004 ft | 392 kts | 130° |
| 2026-05-09 12:24 | 40.31031 | -73.20886 | 13444 ft | 399 kts | 127° |
| 2026-05-09 12:25 | 40.29507 | -73.17809 | 13890 ft | 403 kts | 127° |
| 2026-05-09 12:25 | 40.27970 | -73.14723 | 14283 ft | 406 kts | 127° |
| 2026-05-09 12:25 | 40.26940 | -73.12661 | 14549 ft | 409 kts | 127° |
| 2026-05-09 12:26 | 40.23051 | -73.04878 | 15539 ft | 418 kts | 128° |
| 2026-05-09 12:26 | 40.21449 | -73.01673 | 15938 ft | 422 kts | 128° |
| 2026-05-09 12:26 | 40.19834 | -72.98447 | 16326 ft | 426 kts | 128° |
| 2026-05-09 12:26 | 40.18204 | -72.95195 | 16727 ft | 429 kts | 128° |
| 2026-05-09 12:27 | 40.16560 | -72.91918 | 17108 ft | 433 kts | 128° |
| 2026-05-09 12:27 | 40.14902 | -72.88621 | 17490 ft | 437 kts | 128° |
| 2026-05-09 12:27 | 40.13222 | -72.85283 | 17875 ft | 440 kts | 128° |
| 2026-05-09 12:27 | 40.11534 | -72.81935 | 18273 ft | 444 kts | 128° |
| 2026-05-09 12:28 | 40.09833 | -72.78544 | 18631 ft | 447 kts | 127° |
| 2026-05-09 12:28 | 40.08190 | -72.75093 | 18981 ft | 451 kts | 126° |
| 2026-05-09 12:28 | 40.06603 | -72.71592 | 19328 ft | 454 kts | 124° |
| 2026-05-09 12:28 | 40.05021 | -72.68014 | 19677 ft | 456 kts | 124° |
| 2026-05-09 12:29 | 40.03434 | -72.64408 | 20032 ft | 459 kts | 124° |
| 2026-05-09 12:29 | 40.01842 | -72.60807 | 20373 ft | 461 kts | 124° |
| 2026-05-09 12:29 | 40.00228 | -72.57193 | 20749 ft | 462 kts | 124° |
| 2026-05-09 12:29 | 39.98589 | -72.53570 | 21081 ft | 464 kts | 125° |
| 2026-05-09 12:30 | 39.96935 | -72.49948 | 21415 ft | 466 kts | 125° |
| 2026-05-09 12:30 | 39.95284 | -72.46306 | 21737 ft | 469 kts | 124° |
| 2026-05-09 12:30 | 39.92020 | -72.38897 | 22378 ft | 473 kts | 123° |
| 2026-05-09 12:31 | 39.90394 | -72.35157 | 22692 ft | 476 kts | 123° |
| 2026-05-09 12:31 | 39.87111 | -72.27634 | 23299 ft | 480 kts | 123° |
| 2026-05-09 12:31 | 39.85448 | -72.23855 | 23580 ft | 482 kts | 123° |
| 2026-05-09 12:32 | 39.83772 | -72.20064 | 23832 ft | 484 kts | 124° |
| 2026-05-09 12:32 | 39.82084 | -72.16264 | 24102 ft | 486 kts | 124° |
| 2026-05-09 12:32 | 39.80387 | -72.12459 | 24357 ft | 488 kts | 124° |
| 2026-05-09 12:32 | 39.78682 | -72.08641 | 24613 ft | 489 kts | 124° |
| 2026-05-09 12:33 | 39.76968 | -72.04796 | 24869 ft | 491 kts | 124° |
| 2026-05-09 12:33 | 39.75254 | -72.00947 | 25130 ft | 493 kts | 124° |
| 2026-05-09 12:33 | 39.73532 | -71.97097 | 25380 ft | 494 kts | 124° |
| 2026-05-09 12:33 | 39.71773 | -71.93242 | 25625 ft | 495 kts | 125° |
| 2026-05-09 12:34 | 39.69991 | -71.89408 | 25842 ft | 497 kts | 125° |
| 2026-05-09 12:34 | 39.68190 | -71.85572 | 26058 ft | 498 kts | 126° |
| 2026-05-09 12:34 | 39.66380 | -71.81729 | 26301 ft | 499 kts | 126° |
| 2026-05-09 12:34 | 39.64566 | -71.77874 | 26529 ft | 501 kts | 125° |
| 2026-05-09 12:35 | 39.62776 | -71.74060 | 26748 ft | 503 kts | 125° |
| 2026-05-09 12:35 | 39.60934 | -71.70121 | 26980 ft | 504 kts | 125° |
| 2026-05-09 12:35 | 39.59115 | -71.66229 | 27203 ft | 506 kts | 125° |
| 2026-05-09 12:35 | 39.57312 | -71.62376 | 27425 ft | 507 kts | 125° |
| 2026-05-09 12:36 | 39.55476 | -71.58460 | 27657 ft | 509 kts | 125° |
| 2026-05-09 12:36 | 39.53628 | -71.54534 | 27892 ft | 510 kts | 125° |
| 2026-05-09 12:36 | 39.51778 | -71.50603 | 28192 ft | 510 kts | 125° |
| 2026-05-09 12:36 | 39.49933 | -71.46686 | 28506 ft | 510 kts | 125° |
| 2026-05-09 12:37 | 39.48085 | -71.42770 | 28813 ft | 509 kts | 126° |
| 2026-05-09 12:37 | 39.46207 | -71.38892 | 29119 ft | 506 kts | 130° |
| 2026-05-09 12:37 | 39.44018 | -71.35360 | 29428 ft | 500 kts | 139° |
| 2026-05-09 12:37 | 39.41503 | -71.32308 | 29713 ft | 492 kts | 147° |
| 2026-05-09 12:38 | 39.38736 | -71.29774 | 30011 ft | 485 kts | 155° |
| 2026-05-09 12:38 | 39.35779 | -71.27761 | 30234 ft | 477 kts | 164° |
| 2026-05-09 12:38 | 39.32721 | -71.26145 | 30455 ft | 475 kts | 166° |
| 2026-05-09 12:38 | 39.29655 | -71.24550 | 30679 ft | 475 kts | 166° |
| 2026-05-09 12:39 | 39.26590 | -71.22954 | 30901 ft | 474 kts | 166° |
| 2026-05-09 12:39 | 39.23526 | -71.21363 | 31062 ft | 475 kts | 166° |
| 2026-05-09 12:39 | 39.20473 | -71.19779 | 31100 ft | 473 kts | 167° |
| 2026-05-09 12:40 | 39.14370 | -71.16613 | 31099 ft | 472 kts | 166° |
| 2026-05-09 12:40 | 39.08276 | -71.13457 | 31112 ft | 472 kts | 167° |
| 2026-05-09 12:41 | 39.02215 | -71.10334 | 31109 ft | 472 kts | 167° |
| 2026-05-09 12:41 | 38.96125 | -71.07194 | 31115 ft | 472 kts | 167° |
| 2026-05-09 12:42 | 38.90026 | -71.04046 | 31095 ft | 472 kts | 167° |
| 2026-05-09 12:42 | 38.83927 | -71.00904 | 31107 ft | 472 kts | 167° |
| 2026-05-09 12:43 | 38.77821 | -70.97774 | 31121 ft | 472 kts | 167° |
| 2026-05-09 12:43 | 38.71716 | -70.94652 | 31132 ft | 472 kts | 167° |
| 2026-05-09 12:44 | 38.65612 | -70.91534 | 31097 ft | 473 kts | 167° |
| 2026-05-09 12:44 | 38.59508 | -70.88407 | 31111 ft | 473 kts | 167° |
| 2026-05-09 12:45 | 38.53429 | -70.85321 | 31107 ft | 473 kts | 168° |
| 2026-05-09 12:45 | 38.47310 | -70.82209 | 31124 ft | 473 kts | 168° |
| 2026-05-09 12:46 | 38.41194 | -70.79102 | 31121 ft | 473 kts | 168° |
| 2026-05-09 12:46 | 38.35072 | -70.75997 | 31123 ft | 473 kts | 168° |
| 2026-05-09 12:47 | 38.28945 | -70.72903 | 31133 ft | 473 kts | 168° |
| 2026-05-09 12:47 | 38.23860 | -70.70338 | 31139 ft | 473 kts | 168° |
| 2026-05-09 12:48 | 38.17734 | -70.67262 | 31097 ft | 473 kts | 168° |
| 2026-05-09 12:48 | 38.11600 | -70.64185 | 31107 ft | 474 kts | 168° |
| 2026-05-09 12:49 | 38.05457 | -70.61097 | 31119 ft | 475 kts | 168° |
| 2026-05-09 12:49 | 37.99310 | -70.57992 | 31138 ft | 477 kts | 167° |
| 2026-05-09 12:50 | 37.93243 | -70.54425 | 31113 ft | 483 kts | 163° |
| 2026-05-09 12:50 | 37.87265 | -70.50480 | 31109 ft | 486 kts | 162° |
| 2026-05-09 12:51 | 37.81259 | -70.46545 | 31133 ft | 485 kts | 163° |
| 2026-05-09 12:51 | 37.75223 | -70.42758 | 31144 ft | 485 kts | 164° |
| 2026-05-09 12:52 | 37.69155 | -70.39022 | 31152 ft | 485 kts | 164° |
| 2026-05-09 12:52 | 37.63101 | -70.35265 | 31115 ft | 485 kts | 165° |
| 2026-05-09 12:53 | 37.57047 | -70.31486 | 31131 ft | 486 kts | 165° |
| 2026-05-09 12:53 | 37.51009 | -70.27724 | 31146 ft | 486 kts | 165° |
| 2026-05-09 12:54 | 37.44938 | -70.23948 | 31152 ft | 486 kts | 165° |
| 2026-05-09 12:54 | 37.38872 | -70.20192 | 31133 ft | 486 kts | 165° |
| 2026-05-09 12:55 | 37.32796 | -70.16435 | 31130 ft | 487 kts | 165° |
| 2026-05-09 12:55 | 37.26716 | -70.12685 | 31142 ft | 487 kts | 165° |
| 2026-05-09 12:56 | 37.20624 | -70.08942 | 31150 ft | 488 kts | 165° |
| 2026-05-09 12:56 | 37.14533 | -70.05192 | 31129 ft | 488 kts | 165° |
| 2026-05-09 12:57 | 37.08432 | -70.01440 | 31152 ft | 488 kts | 165° |
| 2026-05-09 12:57 | 37.02338 | -69.97709 | 31168 ft | 488 kts | 165° |
| 2026-05-09 12:58 | 36.96229 | -69.93975 | 31174 ft | 488 kts | 165° |
| 2026-05-09 12:58 | 36.90128 | -69.90256 | 31146 ft | 487 kts | 166° |
| 2026-05-09 12:59 | 36.84081 | -69.86568 | 31164 ft | 487 kts | 166° |
| 2026-05-09 12:59 | 36.77993 | -69.82867 | 31158 ft | 486 kts | 166° |
| 2026-05-09 13:00 | 36.71913 | -69.79172 | 31176 ft | 486 kts | 166° |
| 2026-05-09 13:00 | 36.65836 | -69.75489 | 31185 ft | 486 kts | 166° |
| 2026-05-09 13:01 | 36.59759 | -69.71811 | 31190 ft | 486 kts | 166° |
| 2026-05-09 13:01 | 36.53681 | -69.68133 | 31191 ft | 485 kts | 166° |
| 2026-05-09 13:02 | 36.47601 | -69.64476 | 31196 ft | 485 kts | 166° |
| 2026-05-09 13:02 | 36.41563 | -69.60852 | 31196 ft | 485 kts | 166° |
| 2026-05-09 13:03 | 36.35491 | -69.57197 | 31172 ft | 485 kts | 166° |
| 2026-05-09 13:03 | 36.29426 | -69.53552 | 31191 ft | 484 kts | 166° |
| 2026-05-09 13:04 | 36.23363 | -69.49916 | 31199 ft | 483 kts | 166° |
| 2026-05-09 13:04 | 36.17297 | -69.46357 | 31207 ft | 476 kts | 171° |
| 2026-05-09 13:04 | 36.14211 | -69.45055 | 31160 ft | 462 kts | 178° |
| 2026-05-09 13:05 | 36.11110 | -69.44182 | 31181 ft | 455 kts | 179° |
| 2026-05-09 13:05 | 36.04921 | -69.42524 | 31206 ft | 454 kts | 179° |
| 2026-05-09 13:06 | 35.98750 | -69.40857 | 31212 ft | 453 kts | 179° |
| 2026-05-09 13:06 | 35.92633 | -69.39209 | 31213 ft | 452 kts | 179° |
| 2026-05-09 13:07 | 35.86484 | -69.37556 | 31187 ft | 452 kts | 179° |
| 2026-05-09 13:07 | 35.80334 | -69.35907 | 31189 ft | 452 kts | 179° |
| 2026-05-09 13:08 | 35.74178 | -69.34265 | 31193 ft | 453 kts | 179° |
| 2026-05-09 13:08 | 35.68013 | -69.32619 | 31198 ft | 453 kts | 179° |
| 2026-05-09 13:09 | 35.61855 | -69.30973 | 31158 ft | 454 kts | 179° |
| 2026-05-09 13:09 | 35.55666 | -69.29318 | 31163 ft | 456 kts | 179° |
| 2026-05-09 13:10 | 35.49457 | -69.27665 | 31174 ft | 457 kts | 179° |
| 2026-05-09 13:10 | 35.43234 | -69.26011 | 31181 ft | 458 kts | 179° |
| 2026-05-09 13:11 | 35.37039 | -69.24369 | 31160 ft | 458 kts | 179° |
| 2026-05-09 13:11 | 35.30794 | -69.22713 | 31176 ft | 459 kts | 179° |
| 2026-05-09 13:12 | 35.24538 | -69.21062 | 31193 ft | 460 kts | 179° |
| 2026-05-09 13:12 | 35.18275 | -69.19407 | 31204 ft | 461 kts | 179° |
| 2026-05-09 13:13 | 35.11996 | -69.17748 | 31161 ft | 462 kts | 179° |
| 2026-05-09 13:13 | 35.05695 | -69.16084 | 31174 ft | 464 kts | 179° |
| 2026-05-09 13:14 | 34.99371 | -69.14413 | 31184 ft | 465 kts | 179° |
| 2026-05-09 13:16 | 34.73998 | -69.07783 | 31190 ft | 468 kts | 179° |
| 2026-05-09 13:16 | 34.67613 | -69.06113 | 31198 ft | 469 kts | 179° |
| 2026-05-09 13:17 | 34.61227 | -69.04448 | 31183 ft | 469 kts | 179° |
| 2026-05-09 13:17 | 34.54879 | -69.02796 | 31199 ft | 470 kts | 178° |
| 2026-05-09 13:18 | 34.48478 | -69.01127 | 31197 ft | 471 kts | 178° |
| 2026-05-09 13:18 | 34.42057 | -68.99469 | 31204 ft | 471 kts | 179° |
| 2026-05-09 13:19 | 34.35644 | -68.97818 | 31170 ft | 471 kts | 178° |
| 2026-05-09 13:19 | 34.29229 | -68.96159 | 31182 ft | 472 kts | 178° |
| 2026-05-09 13:20 | 34.22801 | -68.94493 | 31198 ft | 472 kts | 178° |
| 2026-05-09 13:20 | 34.16377 | -68.92835 | 31209 ft | 472 kts | 178° |
| 2026-05-09 13:21 | 34.09986 | -68.91193 | 31215 ft | 472 kts | 178° |
| 2026-05-09 13:21 | 34.03556 | -68.89543 | 31216 ft | 472 kts | 178° |
| 2026-05-09 13:22 | 33.97085 | -68.87894 | 31217 ft | 472 kts | 178° |
| 2026-05-09 13:22 | 33.90697 | -68.86258 | 31218 ft | 472 kts | 178° |
| 2026-05-09 13:23 | 33.74589 | -68.82140 | 31192 ft | 474 kts | 178° |
| 2026-05-09 13:24 | 33.68126 | -68.80493 | 31202 ft | 475 kts | 178° |
| 2026-05-09 13:24 | 33.61658 | -68.78847 | 31171 ft | 475 kts | 178° |
| 2026-05-09 13:25 | 33.55187 | -68.77206 | 31189 ft | 475 kts | 178° |
| 2026-05-09 13:26 | 33.45512 | -68.74753 | 31214 ft | 475 kts | 178° |
| 2026-05-09 13:26 | 33.39034 | -68.73123 | 31216 ft | 475 kts | 178° |
| 2026-05-09 13:27 | 33.32564 | -68.71488 | 31192 ft | 475 kts | 178° |
| 2026-05-09 13:27 | 33.26091 | -68.69854 | 31200 ft | 475 kts | 178° |
| 2026-05-09 13:28 | 33.19620 | -68.68221 | 31208 ft | 475 kts | 178° |
| 2026-05-09 13:28 | 33.13136 | -68.66584 | 31211 ft | 475 kts | 178° |
| 2026-05-09 13:29 | 33.06663 | -68.64961 | 31190 ft | 475 kts | 178° |
| 2026-05-09 13:29 | 33.00197 | -68.63351 | 31198 ft | 475 kts | 178° |
| 2026-05-09 13:30 | 32.93721 | -68.61738 | 31194 ft | 475 kts | 178° |
| 2026-05-09 13:30 | 32.87292 | -68.60125 | 31200 ft | 475 kts | 178° |
| 2026-05-09 13:31 | 32.80825 | -68.58505 | 31185 ft | 475 kts | 178° |
| 2026-05-09 13:31 | 32.74359 | -68.56898 | 31197 ft | 474 kts | 178° |
| 2026-05-09 13:32 | 32.67898 | -68.55298 | 31207 ft | 474 kts | 178° |
| 2026-05-09 13:32 | 32.58198 | -68.52886 | 31207 ft | 474 kts | 178° |
| 2026-05-09 13:33 | 32.51713 | -68.51281 | 31302 ft | 478 kts | 178° |
| 2026-05-09 13:33 | 32.48453 | -68.50481 | 31475 ft | 479 kts | 178° |
| 2026-05-09 13:33 | 32.45181 | -68.49676 | 31695 ft | 480 kts | 178° |
| 2026-05-09 13:34 | 32.41917 | -68.48868 | 31918 ft | 479 kts | 178° |
| 2026-05-09 13:34 | 32.38652 | -68.48059 | 32146 ft | 479 kts | 178° |
| 2026-05-09 13:34 | 32.36493 | -68.47524 | 32311 ft | 478 kts | 178° |
| 2026-05-09 13:34 | 32.33232 | -68.46717 | 32537 ft | 478 kts | 178° |
| 2026-05-09 13:35 | 32.29976 | -68.45913 | 32719 ft | 477 kts | 178° |
| 2026-05-09 13:35 | 32.25672 | -68.44852 | 33021 ft | 477 kts | 178° |
| 2026-05-09 13:35 | 32.22426 | -68.44052 | 33168 ft | 477 kts | 178° |
| 2026-05-09 13:35 | 32.19179 | -68.43255 | 33192 ft | 476 kts | 178° |
| 2026-05-09 13:36 | 32.12699 | -68.41662 | 33178 ft | 476 kts | 178° |
| 2026-05-09 13:36 | 32.07273 | -68.40329 | 33182 ft | 475 kts | 178° |
| 2026-05-09 13:37 | 32.00826 | -68.38748 | 33183 ft | 476 kts | 178° |
| 2026-05-09 13:37 | 31.94331 | -68.37168 | 33180 ft | 476 kts | 178° |
| 2026-05-09 13:38 | 31.87847 | -68.35582 | 33181 ft | 476 kts | 178° |
| 2026-05-09 13:38 | 31.81348 | -68.33991 | 33186 ft | 477 kts | 178° |
| 2026-05-09 13:39 | 31.74855 | -68.32415 | 33164 ft | 477 kts | 178° |
| 2026-05-09 13:39 | 31.68353 | -68.30834 | 33174 ft | 477 kts | 178° |
| 2026-05-09 13:40 | 31.61849 | -68.29251 | 33180 ft | 477 kts | 178° |
| 2026-05-09 13:40 | 31.55335 | -68.27671 | 33186 ft | 478 kts | 178° |
| 2026-05-09 13:41 | 31.48824 | -68.26091 | 33190 ft | 478 kts | 178° |
| 2026-05-09 13:41 | 31.42352 | -68.24534 | 33189 ft | 478 kts | 178° |
| 2026-05-09 13:42 | 31.35839 | -68.22967 | 33192 ft | 478 kts | 178° |
| 2026-05-09 13:42 | 31.29321 | -68.21386 | 33189 ft | 478 kts | 178° |
| 2026-05-09 13:43 | 31.22807 | -68.19814 | 33156 ft | 478 kts | 177° |
| 2026-05-09 13:43 | 31.16296 | -68.18251 | 33149 ft | 478 kts | 177° |
| 2026-05-09 13:44 | 31.09773 | -68.16686 | 33155 ft | 479 kts | 177° |
| 2026-05-09 13:44 | 31.03233 | -68.15122 | 33164 ft | 479 kts | 177° |
| 2026-05-09 13:45 | 30.96693 | -68.13553 | 33147 ft | 480 kts | 177° |
| 2026-05-09 13:45 | 30.90148 | -68.11988 | 33156 ft | 480 kts | 177° |
| 2026-05-09 13:46 | 30.83642 | -68.10436 | 33170 ft | 480 kts | 177° |
| 2026-05-09 13:46 | 30.77093 | -68.08880 | 33172 ft | 481 kts | 177° |
| 2026-05-09 13:47 | 30.70535 | -68.07317 | 33176 ft | 481 kts | 177° |
| 2026-05-09 13:47 | 30.63981 | -68.05751 | 33147 ft | 481 kts | 176° |
| 2026-05-09 13:48 | 30.57412 | -68.04195 | 33154 ft | 482 kts | 176° |
| 2026-05-09 13:48 | 30.50837 | -68.02636 | 33162 ft | 482 kts | 176° |
| 2026-05-09 13:49 | 30.44296 | -68.01089 | 33167 ft | 483 kts | 176° |
| 2026-05-09 13:49 | 30.37714 | -67.99535 | 33142 ft | 483 kts | 176° |
| 2026-05-09 13:50 | 30.31123 | -67.97979 | 33158 ft | 484 kts | 176° |
| 2026-05-09 13:50 | 30.24517 | -67.96419 | 33160 ft | 484 kts | 176° |
| 2026-05-09 13:51 | 30.17911 | -67.94864 | 33167 ft | 484 kts | 176° |
| 2026-05-09 13:51 | 30.11307 | -67.93307 | 33147 ft | 484 kts | 176° |
| 2026-05-09 13:52 | 30.04693 | -67.91751 | 33154 ft | 485 kts | 176° |
| 2026-05-09 13:52 | 29.98116 | -67.90207 | 33165 ft | 485 kts | 176° |
| 2026-05-09 13:53 | 29.91497 | -67.88662 | 33169 ft | 485 kts | 176° |
| 2026-05-09 13:53 | 29.84881 | -67.87121 | 33142 ft | 485 kts | 176° |
| 2026-05-09 13:54 | 29.78268 | -67.85577 | 33159 ft | 485 kts | 176° |
| 2026-05-09 13:54 | 29.71655 | -67.84030 | 33170 ft | 485 kts | 176° |
| 2026-05-09 13:55 | 29.65034 | -67.82482 | 33173 ft | 485 kts | 176° |
| 2026-05-09 13:55 | 29.58410 | -67.80942 | 33157 ft | 485 kts | 176° |
| 2026-05-09 13:56 | 29.51786 | -67.79411 | 33162 ft | 485 kts | 176° |
| 2026-05-09 13:56 | 29.45158 | -67.77875 | 33169 ft | 486 kts | 176° |
| 2026-05-09 13:57 | 29.38528 | -67.76333 | 33179 ft | 486 kts | 176° |
| 2026-05-09 13:57 | 29.31893 | -67.74798 | 33178 ft | 486 kts | 176° |
| 2026-05-09 13:58 | 29.25261 | -67.73263 | 33162 ft | 487 kts | 176° |
| 2026-05-09 13:58 | 29.18651 | -67.71736 | 33169 ft | 487 kts | 176° |
| 2026-05-09 13:59 | 29.12005 | -67.70201 | 33169 ft | 487 kts | 176° |
| 2026-05-09 13:59 | 29.05358 | -67.68675 | 33174 ft | 487 kts | 176° |
| 2026-05-09 14:00 | 29.00908 | -67.67656 | 33153 ft | 487 kts | 175° |
| 2026-05-09 14:00 | 28.92048 | -67.65624 | 33165 ft | 488 kts | 176° |
| 2026-05-09 14:01 | 28.85382 | -67.64097 | 33176 ft | 488 kts | 175° |
| 2026-05-09 14:01 | 28.78720 | -67.62568 | 33180 ft | 488 kts | 175° |
| 2026-05-09 14:02 | 28.72061 | -67.61042 | 33180 ft | 488 kts | 175° |
| 2026-05-09 14:02 | 28.65437 | -67.59529 | 33181 ft | 488 kts | 175° |
| 2026-05-09 14:03 | 28.58774 | -67.58010 | 33182 ft | 488 kts | 176° |
| 2026-05-09 14:03 | 28.52110 | -67.56502 | 33182 ft | 488 kts | 176° |
| 2026-05-09 14:04 | 28.45441 | -67.54983 | 33163 ft | 488 kts | 175° |
| 2026-05-09 14:04 | 28.38776 | -67.53467 | 33181 ft | 488 kts | 175° |
| 2026-05-09 14:05 | 28.32116 | -67.51957 | 33182 ft | 488 kts | 175° |
| 2026-05-09 14:05 | 28.25449 | -67.50445 | 33183 ft | 488 kts | 175° |
| 2026-05-09 14:06 | 28.18783 | -67.48937 | 33185 ft | 488 kts | 175° |
| 2026-05-09 14:06 | 28.12123 | -67.47431 | 33174 ft | 488 kts | 175° |
| 2026-05-09 14:07 | 28.05458 | -67.45928 | 33180 ft | 488 kts | 175° |
| 2026-05-09 14:07 | 27.98799 | -67.44426 | 33184 ft | 488 kts | 175° |
| 2026-05-09 14:08 | 27.92166 | -67.42936 | 33185 ft | 488 kts | 175° |
| 2026-05-09 14:08 | 27.85499 | -67.41438 | 33171 ft | 488 kts | 175° |
| 2026-05-09 14:09 | 27.78831 | -67.39939 | 33179 ft | 488 kts | 175° |
| 2026-05-09 14:09 | 27.72166 | -67.38439 | 33181 ft | 489 kts | 175° |
| 2026-05-09 14:10 | 27.62165 | -67.36189 | 33181 ft | 489 kts | 175° |
| 2026-05-09 14:11 | 27.55496 | -67.34706 | 33175 ft | 489 kts | 175° |
| 2026-05-09 14:11 | 27.48819 | -67.33226 | 33178 ft | 489 kts | 175° |
| 2026-05-09 14:12 | 27.42146 | -67.31739 | 33180 ft | 489 kts | 175° |
| 2026-05-09 14:12 | 27.35474 | -67.30247 | 33181 ft | 489 kts | 175° |
| 2026-05-09 14:13 | 27.28806 | -67.28758 | 33164 ft | 489 kts | 174° |
| 2026-05-09 14:15 | 27.02131 | -67.22848 | 33172 ft | 489 kts | 174° |
| 2026-05-09 14:15 | 26.95451 | -67.21373 | 33169 ft | 489 kts | 174° |
| 2026-05-09 14:16 | 26.88760 | -67.19896 | 33169 ft | 490 kts | 174° |
| 2026-05-09 14:16 | 26.82057 | -67.18409 | 33174 ft | 491 kts | 174° |
| 2026-05-09 14:17 | 26.75395 | -67.16939 | 33173 ft | 491 kts | 174° |
| 2026-05-09 14:17 | 26.68691 | -67.15464 | 33163 ft | 491 kts | 174° |
| 2026-05-09 14:18 | 26.61987 | -67.13988 | 33176 ft | 491 kts | 174° |
| 2026-05-09 14:18 | 26.55280 | -67.12514 | 33190 ft | 491 kts | 174° |
| 2026-05-09 14:19 | 26.48576 | -67.11048 | 33186 ft | 491 kts | 174° |
| 2026-05-09 14:19 | 26.41866 | -67.09586 | 33166 ft | 491 kts | 174° |
| 2026-05-09 14:20 | 26.35169 | -67.08122 | 33170 ft | 491 kts | 173° |
| 2026-05-09 14:20 | 26.28467 | -67.06650 | 33176 ft | 491 kts | 173° |
| 2026-05-09 14:21 | 26.18455 | -67.04472 | 33178 ft | 491 kts | 174° |
| 2026-05-09 14:21 | 26.11759 | -67.03015 | 33164 ft | 490 kts | 173° |
| 2026-05-09 14:22 | 26.05060 | -67.01554 | 33178 ft | 490 kts | 173° |
| 2026-05-09 14:22 | 25.98363 | -67.00090 | 33182 ft | 490 kts | 173° |
| 2026-05-09 14:23 | 25.92796 | -66.98881 | 33180 ft | 490 kts | 173° |
| 2026-05-09 14:23 | 25.84968 | -66.97194 | 33180 ft | 490 kts | 173° |
| 2026-05-09 14:24 | 25.79399 | -66.95993 | 33182 ft | 490 kts | 173° |
| 2026-05-09 14:24 | 25.72700 | -66.94533 | 33181 ft | 490 kts | 173° |
| 2026-05-09 14:25 | 25.66050 | -66.93088 | 33181 ft | 490 kts | 173° |
| 2026-05-09 14:25 | 25.59354 | -66.91643 | 33182 ft | 490 kts | 173° |
| 2026-05-09 14:26 | 25.52657 | -66.90203 | 33175 ft | 490 kts | 173° |
| 2026-05-09 14:26 | 25.45964 | -66.88766 | 33175 ft | 490 kts | 173° |
| 2026-05-09 14:27 | 25.39272 | -66.87330 | 33176 ft | 490 kts | 173° |
| 2026-05-09 14:27 | 25.32576 | -66.85889 | 33178 ft | 490 kts | 173° |
| 2026-05-09 14:28 | 25.25886 | -66.84451 | 33169 ft | 490 kts | 173° |
| 2026-05-09 14:28 | 25.19184 | -66.83006 | 33168 ft | 490 kts | 173° |
| 2026-05-09 14:29 | 25.12482 | -66.81570 | 33173 ft | 490 kts | 173° |
| 2026-05-09 14:29 | 25.05788 | -66.80138 | 33174 ft | 490 kts | 173° |
| 2026-05-09 14:30 | 24.99141 | -66.78719 | 33176 ft | 490 kts | 173° |
| 2026-05-09 14:30 | 24.92442 | -66.77292 | 33166 ft | 490 kts | 172° |
| 2026-05-09 14:31 | 24.85745 | -66.75865 | 33171 ft | 490 kts | 172° |
| 2026-05-09 14:31 | 24.79049 | -66.74438 | 33181 ft | 490 kts | 172° |
| 2026-05-09 14:32 | 24.72341 | -66.73013 | 33178 ft | 490 kts | 172° |
| 2026-05-09 14:32 | 24.65647 | -66.71590 | 33165 ft | 490 kts | 172° |
| 2026-05-09 14:33 | 24.58936 | -66.70164 | 33176 ft | 490 kts | 172° |
| 2026-05-09 14:33 | 24.52235 | -66.68747 | 33174 ft | 490 kts | 172° |
| 2026-05-09 14:34 | 24.45529 | -66.67321 | 33173 ft | 490 kts | 172° |
| 2026-05-09 14:34 | 24.38878 | -66.65908 | 33172 ft | 490 kts | 172° |
| 2026-05-09 14:35 | 24.32138 | -66.64490 | 33175 ft | 490 kts | 172° |
| 2026-05-09 14:35 | 24.25445 | -66.63080 | 33173 ft | 490 kts | 172° |
| 2026-05-09 14:36 | 24.18797 | -66.61674 | 33181 ft | 490 kts | 172° |
| 2026-05-09 14:36 | 24.12105 | -66.60256 | 33174 ft | 490 kts | 172° |
| 2026-05-09 14:37 | 24.05401 | -66.58848 | 33168 ft | 490 kts | 172° |
| 2026-05-09 14:37 | 23.98701 | -66.57445 | 33170 ft | 490 kts | 172° |
| 2026-05-09 14:38 | 23.92002 | -66.56041 | 33178 ft | 490 kts | 171° |
| 2026-05-09 14:38 | 23.85313 | -66.54639 | 33177 ft | 489 kts | 172° |
| 2026-05-09 14:39 | 23.78629 | -66.53241 | 33174 ft | 489 kts | 172° |
| 2026-05-09 14:39 | 23.71948 | -66.51846 | 33162 ft | 489 kts | 171° |
| 2026-05-09 14:40 | 23.65270 | -66.50436 | 33171 ft | 488 kts | 171° |
| 2026-05-09 14:40 | 23.58643 | -66.49039 | 33172 ft | 488 kts | 171° |
| 2026-05-09 14:41 | 23.51977 | -66.47652 | 33168 ft | 487 kts | 171° |
| 2026-05-09 14:41 | 23.45313 | -66.46263 | 33159 ft | 487 kts | 171° |
| 2026-05-09 14:42 | 23.38650 | -66.44882 | 33163 ft | 487 kts | 171° |
| 2026-05-09 14:42 | 23.31994 | -66.43503 | 33166 ft | 487 kts | 171° |
| 2026-05-09 14:43 | 23.25346 | -66.42117 | 33166 ft | 486 kts | 171° |
| 2026-05-09 14:43 | 23.18705 | -66.40738 | 33166 ft | 486 kts | 171° |
| 2026-05-09 14:44 | 23.12061 | -66.39368 | 33159 ft | 486 kts | 171° |
| 2026-05-09 14:44 | 23.05463 | -66.37994 | 33159 ft | 485 kts | 171° |
| 2026-05-09 14:45 | 22.98827 | -66.36612 | 33157 ft | 485 kts | 171° |
| 2026-05-09 14:45 | 22.92193 | -66.35245 | 33159 ft | 485 kts | 171° |
| 2026-05-09 14:46 | 22.85555 | -66.33882 | 33160 ft | 486 kts | 171° |
| 2026-05-09 14:46 | 22.78917 | -66.32512 | 33161 ft | 485 kts | 171° |
| 2026-05-09 14:47 | 22.72283 | -66.31137 | 33164 ft | 485 kts | 171° |
| 2026-05-09 14:47 | 22.65650 | -66.29769 | 33162 ft | 486 kts | 171° |
| 2026-05-09 14:48 | 22.59010 | -66.28403 | 33165 ft | 486 kts | 171° |
| 2026-05-09 14:48 | 22.52366 | -66.27037 | 33159 ft | 486 kts | 171° |
| 2026-05-09 14:49 | 22.45721 | -66.25670 | 33162 ft | 485 kts | 171° |
| 2026-05-09 14:49 | 22.39096 | -66.24316 | 33160 ft | 484 kts | 171° |
| 2026-05-09 14:50 | 22.32475 | -66.22965 | 33164 ft | 484 kts | 171° |
| 2026-05-09 14:50 | 22.25867 | -66.21610 | 33157 ft | 483 kts | 171° |
| 2026-05-09 14:51 | 22.19254 | -66.20246 | 33157 ft | 483 kts | 170° |
| 2026-05-09 14:51 | 22.12652 | -66.18894 | 33159 ft | 483 kts | 170° |
| 2026-05-09 14:52 | 22.06044 | -66.17551 | 33163 ft | 483 kts | 170° |
| 2026-05-09 14:52 | 21.99442 | -66.16203 | 33161 ft | 483 kts | 170° |
| 2026-05-09 14:53 | 21.92878 | -66.14864 | 33160 ft | 483 kts | 170° |
| 2026-05-09 14:53 | 21.86269 | -66.13527 | 33157 ft | 483 kts | 170° |
| 2026-05-09 14:54 | 21.79667 | -66.12185 | 33157 ft | 483 kts | 170° |
| 2026-05-09 14:54 | 21.73070 | -66.10835 | 33153 ft | 482 kts | 170° |
| 2026-05-09 14:55 | 21.66478 | -66.09493 | 33157 ft | 482 kts | 170° |
| 2026-05-09 14:55 | 21.59886 | -66.08162 | 33152 ft | 482 kts | 170° |
| 2026-05-09 14:56 | 21.53288 | -66.06836 | 33144 ft | 482 kts | 170° |
| 2026-05-09 14:56 | 21.46694 | -66.05478 | 33141 ft | 482 kts | 167° |
| 2026-05-09 14:57 | 21.40316 | -66.03239 | 33144 ft | 483 kts | 161° |
| 2026-05-09 14:57 | 21.34013 | -66.00883 | 33143 ft | 483 kts | 161° |
| 2026-05-09 14:58 | 21.27662 | -65.98519 | 33137 ft | 483 kts | 161° |
| 2026-05-09 14:58 | 21.21309 | -65.96165 | 33138 ft | 483 kts | 161° |
| 2026-05-09 14:59 | 21.14951 | -65.93821 | 33137 ft | 483 kts | 161° |
| 2026-05-09 14:59 | 21.08601 | -65.91462 | 33147 ft | 483 kts | 161° |
| 2026-05-09 15:00 | 21.02256 | -65.89103 | 33149 ft | 483 kts | 161° |
| 2026-05-09 15:00 | 20.95902 | -65.86755 | 33150 ft | 483 kts | 160° |
| 2026-05-09 15:01 | 20.86371 | -65.83237 | 33149 ft | 483 kts | 160° |
| 2026-05-09 15:02 | 20.80012 | -65.80889 | 33148 ft | 483 kts | 160° |
| 2026-05-09 15:02 | 20.73666 | -65.78545 | 33147 ft | 482 kts | 160° |
| 2026-05-09 15:03 | 20.67319 | -65.76206 | 33147 ft | 482 kts | 160° |
| 2026-05-09 15:03 | 20.61015 | -65.73887 | 33143 ft | 483 kts | 160° |
| 2026-05-09 15:04 | 20.54661 | -65.71558 | 33148 ft | 483 kts | 160° |
| 2026-05-09 15:06 | 20.29253 | -65.62234 | 33145 ft | 482 kts | 160° |
| 2026-05-09 15:06 | 20.22909 | -65.59904 | 33146 ft | 482 kts | 160° |
| 2026-05-09 15:07 | 20.16565 | -65.57582 | 33142 ft | 482 kts | 160° |
| 2026-05-09 15:07 | 20.10221 | -65.55272 | 33135 ft | 482 kts | 160° |
| 2026-05-09 15:08 | 20.03872 | -65.52958 | 33139 ft | 482 kts | 160° |
| 2026-05-09 15:08 | 19.94396 | -65.49491 | 33135 ft | 482 kts | 160° |
| 2026-05-09 15:10 | 19.69030 | -65.40261 | 33131 ft | 481 kts | 160° |
| 2026-05-09 15:11 | 19.62694 | -65.37958 | 33127 ft | 481 kts | 160° |
| 2026-05-09 15:11 | 19.56355 | -65.35660 | 33128 ft | 481 kts | 160° |
| 2026-05-09 15:12 | 19.50053 | -65.33380 | 33128 ft | 482 kts | 160° |
| 2026-05-09 15:12 | 19.43714 | -65.31083 | 33122 ft | 481 kts | 160° |
| 2026-05-09 15:13 | 19.37372 | -65.28790 | 33121 ft | 481 kts | 160° |
| 2026-05-09 15:13 | 19.32104 | -65.26884 | 33119 ft | 481 kts | 160° |
| 2026-05-09 15:14 | 19.25770 | -65.24591 | 33123 ft | 481 kts | 160° |
| 2026-05-09 15:14 | 19.19428 | -65.22296 | 33119 ft | 481 kts | 160° |
| 2026-05-09 15:15 | 19.13081 | -65.20005 | 33119 ft | 482 kts | 160° |
| 2026-05-09 15:15 | 19.06734 | -65.17719 | 33119 ft | 482 kts | 160° |
| 2026-05-09 15:16 | 19.00396 | -65.15444 | 33121 ft | 482 kts | 160° |
| 2026-05-09 15:16 | 18.94046 | -65.13151 | 33120 ft | 482 kts | 160° |
| 2026-05-09 15:17 | 18.87694 | -65.10852 | 33116 ft | 482 kts | 160° |
| 2026-05-09 15:17 | 18.81350 | -65.08569 | 33118 ft | 482 kts | 160° |
| 2026-05-09 15:18 | 18.75030 | -65.06304 | 33117 ft | 482 kts | 160° |
| 2026-05-09 15:18 | 18.68682 | -65.04028 | 33115 ft | 482 kts | 160° |
| 2026-05-09 15:19 | 18.62329 | -65.01748 | 33116 ft | 482 kts | 160° |
| 2026-05-09 15:19 | 18.55972 | -64.99471 | 33115 ft | 482 kts | 160° |
| 2026-05-09 15:20 | 18.46438 | -64.96063 | 33121 ft | 482 kts | 160° |
| 2026-05-09 15:21 | 18.40086 | -64.93793 | 33120 ft | 482 kts | 160° |
| 2026-05-09 15:21 | 18.33765 | -64.91536 | 33115 ft | 482 kts | 160° |
| 2026-05-09 15:22 | 18.27413 | -64.89269 | 33111 ft | 482 kts | 160° |
| 2026-05-09 15:22 | 18.21053 | -64.86997 | 33113 ft | 482 kts | 160° |
| 2026-05-09 15:23 | 18.14700 | -64.84725 | 33111 ft | 483 kts | 160° |
| 2026-05-09 15:23 | 18.08337 | -64.82460 | 33112 ft | 483 kts | 160° |
| 2026-05-09 15:24 | 18.01971 | -64.80203 | 33113 ft | 483 kts | 160° |
| 2026-05-09 15:24 | 17.95616 | -64.77941 | 33115 ft | 483 kts | 160° |
| 2026-05-09 15:25 | 17.89256 | -64.75672 | 33118 ft | 483 kts | 160° |
| 2026-05-09 15:25 | 17.82889 | -64.73411 | 33120 ft | 483 kts | 160° |
| 2026-05-09 15:26 | 17.76709 | -64.70835 | 33118 ft | 479 kts | 148° |
| 2026-05-09 15:26 | 17.73963 | -64.68881 | 33117 ft | 476 kts | 138° |
| 2026-05-09 15:26 | 17.69629 | -64.63741 | 33104 ft | 468 kts | 119° |
| 2026-05-09 15:27 | 17.66169 | -64.57944 | 33101 ft | 469 kts | 119° |
| 2026-05-09 15:27 | 17.62668 | -64.52161 | 33103 ft | 469 kts | 120° |
| 2026-05-09 15:28 | 17.59163 | -64.46387 | 33104 ft | 470 kts | 120° |
| 2026-05-09 15:28 | 17.55119 | -64.41045 | 33103 ft | 473 kts | 130° |
| 2026-05-09 15:29 | 17.50662 | -64.35965 | 33098 ft | 473 kts | 130° |
| 2026-05-09 15:29 | 17.46206 | -64.30882 | 33106 ft | 473 kts | 130° |
| 2026-05-09 15:30 | 17.41738 | -64.25806 | 33105 ft | 473 kts | 130° |
| 2026-05-09 15:30 | 17.37273 | -64.20733 | 33102 ft | 473 kts | 130° |
| 2026-05-09 15:31 | 17.32841 | -64.15698 | 33102 ft | 473 kts | 130° |
| 2026-05-09 15:31 | 17.28382 | -64.10633 | 33098 ft | 473 kts | 130° |
| 2026-05-09 15:32 | 17.23916 | -64.05572 | 33100 ft | 473 kts | 130° |
| 2026-05-09 15:32 | 17.19451 | -64.00512 | 33101 ft | 473 kts | 129° |
| 2026-05-09 15:33 | 17.14992 | -63.95467 | 33100 ft | 473 kts | 129° |
| 2026-05-09 15:33 | 17.10528 | -63.90409 | 33099 ft | 473 kts | 129° |
| 2026-05-09 15:34 | 17.06071 | -63.85361 | 33096 ft | 473 kts | 129° |
| 2026-05-09 15:34 | 17.01604 | -63.80310 | 33096 ft | 473 kts | 129° |
| 2026-05-09 15:35 | 16.97141 | -63.75266 | 33096 ft | 473 kts | 129° |
| 2026-05-09 15:35 | 16.92672 | -63.70221 | 33101 ft | 473 kts | 129° |
| 2026-05-09 15:36 | 16.88207 | -63.65182 | 33096 ft | 473 kts | 129° |
| 2026-05-09 15:36 | 16.83762 | -63.60180 | 33097 ft | 473 kts | 129° |
| 2026-05-09 15:37 | 16.79291 | -63.55149 | 33094 ft | 473 kts | 129° |
| 2026-05-09 15:37 | 16.74821 | -63.50117 | 33093 ft | 472 kts | 129° |
| 2026-05-09 15:38 | 16.70355 | -63.45095 | 33094 ft | 472 kts | 129° |
| 2026-05-09 15:38 | 16.65880 | -63.40072 | 33096 ft | 472 kts | 129° |
| 2026-05-09 15:39 | 16.61404 | -63.35052 | 33094 ft | 472 kts | 129° |
| 2026-05-09 15:39 | 16.56928 | -63.30037 | 33087 ft | 472 kts | 129° |
| 2026-05-09 15:40 | 16.52464 | -63.25026 | 33088 ft | 472 kts | 129° |
| 2026-05-09 15:40 | 16.47996 | -63.20014 | 33088 ft | 471 kts | 129° |
| 2026-05-09 15:41 | 16.43521 | -63.15008 | 33083 ft | 471 kts | 129° |
| 2026-05-09 15:41 | 16.40026 | -63.11093 | 33093 ft | 471 kts | 129° |